createdAt,value
2023-03-21T00:01:55.215Z,9.80
2023-03-21T00:04:24.764Z,9.90
2023-03-21T00:06:52.672Z,9.90
2023-03-21T00:09:20.872Z,9.90
2023-03-21T00:11:48.596Z,9.90
2023-03-21T00:14:18.702Z,9.90
2023-03-21T00:16:50.632Z,9.90
2023-03-21T00:19:20.906Z,10.00
2023-03-21T00:24:39.512Z,10.10
2023-03-21T00:27:42.857Z,10.20
2023-03-21T00:29:55.666Z,10.30
2023-03-21T00:32:23.052Z,10.30
2023-03-21T00:35:38.402Z,10.50
2023-03-21T00:37:37.348Z,10.40
2023-03-21T00:40:23.151Z,10.40
2023-03-21T00:42:52.772Z,10.40
2023-03-21T00:45:22.281Z,10.50
2023-03-21T00:47:49.794Z,10.50
2023-03-21T00:50:18.146Z,10.40
2023-03-21T00:52:45.378Z,10.40
2023-03-21T00:55:19.353Z,10.30
2023-03-21T00:57:50.192Z,10.30
2023-03-21T01:00:20.636Z,10.30
2023-03-21T01:03:17.499Z,10.30
2023-03-21T01:06:07.152Z,10.20
2023-03-21T01:08:51.752Z,10.00
2023-03-21T01:11:23.597Z,10.00
2023-03-21T01:13:56.196Z,10.00
2023-03-21T01:16:27.486Z,9.90
2023-03-21T01:18:54.747Z,9.80
2023-03-21T01:21:22.277Z,9.80
2023-03-21T01:23:49.443Z,9.70
2023-03-21T01:26:16.970Z,9.80
2023-03-21T01:28:45.718Z,9.80
2023-03-21T01:31:16.833Z,9.80
2023-03-21T01:33:45.003Z,9.70
2023-03-21T01:36:25.250Z,9.70
2023-03-21T01:38:57.057Z,9.70
2023-03-21T01:41:42.559Z,9.80
2023-03-21T01:44:19.797Z,9.80
2023-03-21T01:47:09.317Z,9.80
2023-03-21T01:49:50.131Z,9.80
2023-03-21T01:52:37.532Z,9.80
2023-03-21T01:55:13.280Z,9.80
2023-03-21T01:58:09.532Z,9.80
2023-03-21T02:00:56.756Z,9.70
2023-03-21T02:03:38.253Z,9.60
2023-03-21T02:06:53.031Z,9.80
2023-03-21T02:09:35.980Z,9.80
2023-03-21T02:12:06.430Z,9.60
2023-03-21T02:14:36.632Z,9.60
2023-03-21T02:17:47.461Z,9.60
2023-03-21T02:20:22.185Z,9.60
2023-03-21T02:23:10.257Z,9.40
2023-03-21T02:26:42.322Z,9.20
2023-03-21T02:29:45.924Z,9.10
2023-03-21T02:32:51.547Z,9.10
2023-03-21T02:36:14.263Z,9.00
2023-03-21T02:39:11.651Z,9.10
2023-03-21T02:42:25.636Z,9.20
2023-03-21T02:45:02.033Z,9.20
2023-03-21T02:47:41.687Z,9.20
2023-03-21T02:50:34.834Z,9.30
2023-03-21T02:53:04.705Z,9.30
2023-03-21T02:55:33.782Z,9.30
2023-03-21T02:58:12.719Z,9.20
2023-03-21T03:00:45.383Z,9.00
2023-03-21T03:03:27.983Z,8.90
2023-03-21T03:06:04.467Z,8.80
2023-03-21T03:09:01.557Z,8.80
2023-03-21T03:11:34.742Z,8.90
2023-03-21T03:14:44.196Z,8.90
2023-03-21T03:18:12.778Z,8.90
2023-03-21T03:21:19.014Z,8.90
2023-03-21T03:24:47.224Z,8.90
2023-03-21T03:27:29.812Z,8.90
2023-03-21T03:30:01.276Z,8.90
2023-03-21T03:32:38.534Z,8.90
2023-03-21T03:35:07.568Z,9.00
2023-03-21T03:37:37.888Z,9.00
2023-03-21T03:40:19.403Z,9.00
2023-03-21T03:43:05.558Z,8.90
2023-03-21T03:46:04.122Z,9.00
2023-03-21T03:48:46.392Z,8.80
2023-03-21T03:51:26.141Z,8.70
2023-03-21T03:54:30.816Z,8.60
2023-03-21T03:56:59.303Z,8.40
2023-03-21T03:59:26.610Z,8.40
2023-03-21T04:02:11.913Z,8.40
2023-03-21T04:04:39.584Z,8.40
2023-03-21T04:07:07.756Z,8.50
2023-03-21T04:09:44.077Z,8.60
2023-03-21T04:12:15.388Z,8.60
2023-03-21T04:14:53.285Z,8.70
2023-03-21T04:17:22.714Z,8.70
2023-03-21T04:19:53.792Z,8.70
2023-03-21T04:22:25.759Z,8.70
2023-03-21T04:24:53.611Z,8.80
2023-03-21T04:27:20.856Z,8.80
2023-03-21T04:30:06.115Z,8.90
2023-03-21T04:32:56.690Z,8.60
2023-03-21T04:35:25.753Z,8.70
2023-03-21T04:37:54.355Z,8.80
2023-03-21T04:40:21.655Z,8.70
2023-03-21T04:42:49.298Z,8.80
2023-03-21T04:45:17.302Z,8.80
2023-03-21T04:47:46.841Z,8.80
2023-03-21T04:50:15.921Z,8.80
2023-03-21T04:52:43.496Z,8.60
2023-03-21T04:55:11.299Z,8.70
2023-03-21T04:57:39.602Z,8.80
2023-03-21T05:00:11.251Z,8.80
2023-03-21T05:02:39.197Z,8.70
2023-03-21T05:05:11.334Z,8.70
2023-03-21T05:07:40.568Z,8.70
2023-03-21T05:10:11.835Z,8.80
2023-03-21T05:12:41.417Z,8.90
2023-03-21T05:15:09.680Z,8.90
2023-03-21T05:17:38.208Z,8.90
2023-03-21T05:20:09.232Z,8.70
2023-03-21T05:22:40.660Z,8.70
2023-03-21T05:25:13.151Z,8.60
2023-03-21T05:28:02.995Z,8.70
2023-03-21T05:30:31.911Z,8.60
2023-03-21T05:33:01.200Z,8.70
2023-03-21T05:35:29.541Z,8.80
2023-03-21T05:37:59.689Z,8.90
2023-03-21T05:40:30.777Z,8.70
2023-03-21T05:42:59.245Z,8.80
2023-03-21T05:45:27.309Z,8.80
2023-03-21T05:47:56.071Z,8.80
2023-03-21T05:50:29.545Z,8.90
2023-03-21T05:53:12.419Z,8.90
2023-03-21T05:55:40.074Z,8.90
2023-03-21T05:58:12.764Z,8.90
2023-03-21T06:00:45.374Z,8.90
2023-03-21T06:03:26.020Z,9.00
2023-03-21T06:06:19.381Z,9.20
2023-03-21T06:08:53.430Z,9.20
2023-03-21T06:11:33.499Z,9.30
2023-03-21T06:14:16.754Z,9.30
2023-03-21T06:16:45.450Z,9.00
2023-03-21T06:19:13.318Z,9.10
2023-03-21T06:22:00.819Z,9.00
2023-03-21T06:24:28.331Z,9.10
2023-03-21T06:26:56.193Z,9.10
2023-03-21T06:29:25.970Z,9.00
2023-03-21T06:31:53.129Z,8.70
2023-03-21T06:34:21.544Z,8.60
2023-03-21T06:36:48.704Z,8.70
2023-03-21T06:39:18.243Z,8.70
2023-03-21T06:41:46.413Z,8.80
2023-03-21T06:44:21.789Z,8.70
2023-03-21T06:46:57.250Z,8.60
2023-03-21T06:49:24.857Z,8.80
2023-03-21T06:51:52.035Z,8.80
2023-03-21T06:54:21.535Z,8.90
2023-03-21T06:56:58.878Z,8.90
2023-03-21T06:59:29.922Z,9.00
2023-03-21T07:02:03.109Z,9.00
2023-03-21T07:04:32.021Z,9.30
2023-03-21T07:06:59.071Z,9.30
2023-03-21T07:09:28.259Z,9.00
2023-03-21T07:11:59.559Z,9.40
2023-03-21T07:14:36.731Z,9.50
2023-03-21T07:17:04.537Z,9.50
2023-03-21T07:19:32.019Z,9.60
2023-03-21T07:22:01.419Z,9.50
2023-03-21T07:24:29.195Z,9.60
2023-03-21T07:26:56.726Z,9.60
2023-03-21T07:29:25.005Z,9.90
2023-03-21T07:31:52.170Z,10.00
2023-03-21T07:34:22.546Z,10.30
2023-03-21T07:36:50.955Z,10.10
2023-03-21T07:39:19.619Z,10.00
2023-03-21T07:41:46.716Z,9.90
2023-03-21T07:44:25.416Z,10.00
2023-03-21T07:47:02.330Z,10.20
2023-03-21T07:49:29.590Z,10.20
2023-03-21T07:51:56.760Z,10.40
2023-03-21T07:54:23.865Z,10.40
2023-03-21T07:56:50.962Z,10.50
2023-03-21T07:59:18.042Z,10.70
2023-03-21T08:01:45.105Z,10.70
2023-03-21T08:04:12.461Z,11.10
2023-03-21T08:06:40.391Z,11.10
2023-03-21T08:09:07.742Z,11.40
2023-03-21T08:11:34.886Z,11.10
2023-03-21T08:14:02.290Z,10.90
2023-03-21T08:16:29.573Z,11.40
2023-03-21T08:18:56.664Z,12.10
2023-03-21T08:21:24.057Z,12.30
2023-03-21T08:23:51.464Z,12.30
2023-03-21T08:26:19.425Z,11.60
2023-03-21T08:28:47.124Z,11.80
2023-03-21T08:31:15.052Z,12.10
2023-03-21T08:33:42.180Z,12.20
2023-03-21T08:36:10.420Z,12.00
2023-03-21T08:38:38.012Z,12.30
2023-03-21T08:41:05.458Z,12.00
2023-03-21T08:43:32.698Z,12.20
2023-03-21T08:45:59.824Z,12.00
2023-03-21T08:48:26.889Z,11.90
2023-03-21T08:50:53.999Z,12.00
2023-03-21T08:53:21.094Z,11.70
2023-03-21T08:55:49.808Z,11.40
2023-03-21T08:58:17.851Z,11.80
2023-03-21T09:00:44.925Z,12.30
2023-03-21T09:03:12.272Z,12.60
2023-03-21T09:05:39.848Z,12.70
2023-03-21T09:08:07.172Z,12.40
2023-03-21T09:10:34.361Z,12.80
2023-03-21T09:13:01.486Z,12.90
2023-03-21T09:15:29.903Z,13.70
2023-03-21T09:17:58.463Z,13.60
2023-03-21T09:20:31.183Z,13.50
2023-03-21T09:22:59.782Z,13.30
2023-03-21T09:25:31.814Z,13.90
2023-03-21T09:28:05.277Z,13.80
2023-03-21T09:30:37.227Z,13.80
2023-03-21T09:33:19.292Z,13.60
2023-03-21T09:35:46.503Z,13.90
2023-03-21T09:38:13.780Z,13.90
2023-03-21T09:41:12.012Z,13.70
2023-03-21T09:44:11.982Z,14.20
2023-03-21T09:46:52.351Z,14.00
2023-03-21T09:49:25.742Z,13.50
2023-03-21T09:51:55.726Z,13.00
2023-03-21T09:54:33.427Z,13.10
2023-03-21T09:57:15.020Z,13.20
2023-03-21T09:59:42.934Z,13.20
2023-03-21T10:02:38.346Z,13.20
2023-03-21T10:05:32.879Z,13.40
2023-03-21T10:08:15.672Z,13.80
2023-03-21T10:10:54.689Z,13.90
2023-03-21T10:13:36.213Z,13.60
2023-03-21T10:16:16.007Z,14.00
2023-03-21T10:18:45.127Z,14.70
2023-03-21T10:21:47.331Z,14.70
2023-03-21T10:24:20.676Z,14.60
2023-03-21T10:26:50.688Z,14.60
2023-03-21T10:29:23.026Z,15.10
2023-03-21T10:31:52.044Z,15.60
2023-03-21T10:37:25.231Z,15.00
2023-03-21T10:39:55.006Z,14.90
2023-03-21T10:42:26.578Z,14.80
2023-03-21T10:44:57.572Z,15.20
2023-03-21T10:47:34.733Z,15.30
2023-03-21T10:50:16.474Z,15.60
2023-03-21T10:52:50.802Z,15.40
2023-03-21T10:55:29.456Z,15.70
2023-03-21T10:58:18.933Z,16.20
2023-03-21T11:00:47.716Z,16.80
2023-03-21T11:03:32.340Z,15.80
2023-03-21T11:06:08.537Z,15.40
2023-03-21T11:08:51.747Z,15.60
2023-03-21T11:11:29.317Z,16.60
2023-03-21T11:14:07.129Z,16.60
2023-03-21T11:16:42.789Z,16.80
2023-03-21T11:19:17.702Z,16.50
2023-03-21T11:21:45.381Z,16.00
2023-03-21T11:24:18.771Z,15.90
2023-03-21T11:26:51.361Z,16.20
2023-03-21T11:29:48.181Z,15.80
2023-03-21T11:32:37.989Z,16.20
2023-03-21T11:35:20.797Z,17.00
2023-03-21T11:37:57.080Z,17.40
2023-03-21T11:40:36.432Z,17.70
2023-03-21T11:43:32.589Z,17.60
2023-03-21T11:46:04.901Z,17.40
2023-03-21T11:48:44.800Z,17.60
2023-03-21T11:51:38.999Z,17.40
2023-03-21T11:54:22.375Z,17.50
2023-03-21T11:56:54.090Z,17.20
2023-03-21T11:59:32.871Z,16.80
2023-03-21T12:02:56.415Z,17.20
2023-03-21T12:05:41.472Z,18.00
2023-03-21T12:08:17.454Z,18.10
2023-03-21T12:11:26.079Z,18.20
2023-03-21T12:14:11.565Z,18.20
2023-03-21T12:17:02.866Z,18.50
2023-03-21T12:20:12.063Z,18.90
2023-03-21T12:23:07.249Z,18.50
2023-03-21T12:26:05.877Z,18.20
2023-03-21T12:29:00.423Z,18.00
2023-03-21T12:32:00.886Z,18.30
2023-03-21T12:34:56.599Z,18.10
2023-03-21T12:37:45.271Z,17.90
2023-03-21T12:40:39.300Z,18.40
2023-03-21T12:43:28.455Z,18.50
2023-03-21T12:46:05.871Z,17.80
2023-03-21T12:48:48.449Z,17.90
2023-03-21T12:51:20.277Z,18.10
2023-03-21T12:54:08.140Z,18.60
2023-03-21T12:56:49.579Z,17.90
2023-03-21T12:59:36.104Z,17.80
2023-03-21T13:02:22.810Z,17.90
2023-03-21T13:05:06.050Z,18.00
2023-03-21T13:07:42.049Z,18.10
2023-03-21T13:10:23.570Z,18.50
2023-03-21T13:13:13.456Z,18.90
2023-03-21T13:16:01.280Z,18.20
2023-03-21T13:18:43.258Z,17.80
2023-03-21T13:21:40.278Z,18.30
2023-03-21T13:24:32.583Z,19.00
2023-03-21T13:27:07.988Z,18.90
2023-03-21T13:29:46.883Z,19.70
2023-03-21T13:32:38.617Z,20.20
2023-03-21T13:35:32.740Z,20.40
2023-03-21T13:38:17.297Z,20.60
2023-03-21T13:40:57.238Z,20.50
2023-03-21T13:43:51.738Z,20.50
2023-03-21T13:46:40.624Z,20.00
2023-03-21T13:49:38.442Z,19.70
2023-03-21T13:52:12.195Z,19.80
2023-03-21T13:54:39.244Z,19.70
2023-03-21T13:57:07.707Z,19.70
2023-03-21T13:59:45.271Z,20.00
2023-03-21T14:02:12.844Z,20.40
2023-03-21T14:04:53.906Z,20.70
2023-03-21T14:07:34.378Z,19.90
2023-03-21T14:10:14.091Z,19.60
2023-03-21T14:12:43.954Z,19.70
2023-03-21T14:15:27.708Z,19.60
2023-03-21T14:18:00.083Z,19.40
2023-03-21T14:20:38.663Z,19.50
2023-03-21T14:23:07.992Z,18.70
2023-03-21T14:25:46.709Z,19.10
2023-03-21T14:28:25.248Z,19.80
2023-03-21T14:30:59.968Z,19.70
2023-03-21T14:33:44.312Z,20.00
2023-03-21T14:36:18.138Z,20.10
2023-03-21T14:38:58.554Z,19.90
2023-03-21T14:41:29.493Z,18.60
2023-03-21T14:44:17.645Z,18.30
2023-03-21T14:46:49.614Z,18.80
2023-03-21T14:49:27.849Z,18.80
2023-03-21T14:51:59.439Z,18.70
2023-03-21T14:54:32.815Z,19.10
2023-03-21T14:57:03.592Z,18.40
2023-03-21T14:59:36.531Z,18.20
2023-03-21T15:02:14.832Z,18.60
2023-03-21T15:04:52.225Z,18.80
2023-03-21T15:07:34.787Z,18.60
2023-03-21T15:10:17.876Z,18.40
2023-03-21T15:12:58.731Z,18.10
2023-03-21T15:15:29.987Z,17.80
2023-03-21T15:18:08.979Z,17.70
2023-03-21T15:20:38.723Z,17.70
2023-03-21T15:23:16.275Z,17.50
2023-03-21T15:25:43.719Z,17.70
2023-03-21T15:28:14.672Z,17.80
2023-03-21T15:30:52.383Z,17.90
2023-03-21T15:33:20.639Z,17.90
2023-03-21T15:35:55.676Z,17.90
2023-03-21T15:38:36.390Z,17.60
2023-03-21T15:41:26.260Z,17.60
2023-03-21T15:44:02.654Z,17.30
2023-03-21T15:46:50.893Z,17.20
2023-03-21T15:49:40.264Z,16.90
2023-03-21T15:52:14.335Z,17.10
2023-03-21T15:54:55.756Z,17.00
2023-03-21T15:57:29.948Z,17.20
2023-03-21T16:00:12.000Z,17.30
2023-03-21T16:02:42.305Z,17.60
2023-03-21T16:05:28.956Z,17.90
2023-03-21T16:08:23.647Z,18.30
2023-03-21T16:10:50.935Z,17.70
2023-03-21T16:13:18.159Z,17.60
2023-03-21T16:15:46.975Z,17.50
2023-03-21T16:18:18.091Z,17.10
2023-03-21T16:20:47.157Z,17.10
2023-03-21T16:23:15.898Z,16.80
2023-03-21T16:25:44.440Z,16.50
2023-03-21T16:28:16.592Z,16.20
2023-03-21T16:30:44.578Z,16.20
2023-03-21T16:33:12.981Z,16.00
2023-03-21T16:35:40.480Z,15.80
2023-03-21T16:38:08.005Z,15.60
2023-03-21T16:40:40.128Z,15.40
2023-03-21T16:43:08.013Z,15.40
2023-03-21T16:45:35.930Z,15.20
2023-03-21T16:48:04.156Z,15.20
2023-03-21T16:50:36.219Z,15.00
2023-03-21T16:53:03.910Z,15.00
2023-03-21T16:55:33.629Z,15.00
2023-03-21T16:58:01.677Z,15.00
2023-03-21T17:00:31.354Z,15.00
2023-03-21T17:03:02.593Z,14.90
2023-03-21T17:05:33.016Z,15.00
2023-03-21T17:08:04.637Z,14.90
2023-03-21T17:10:35.557Z,14.80
2023-03-21T17:13:02.616Z,14.90
2023-03-21T17:15:29.799Z,14.80
2023-03-21T17:17:56.875Z,14.80
2023-03-21T17:20:31.636Z,14.70
2023-03-21T17:22:59.379Z,14.60
2023-03-21T17:25:27.162Z,14.50
2023-03-21T17:27:54.515Z,14.50
2023-03-21T17:30:26.242Z,14.40
2023-03-21T17:32:54.727Z,14.40
2023-03-21T17:35:23.485Z,14.30
2023-03-21T17:37:51.776Z,14.30
2023-03-21T17:40:34.550Z,14.20
2023-03-21T17:43:01.635Z,14.20
2023-03-21T17:45:29.721Z,14.20
2023-03-21T17:47:56.817Z,14.10
2023-03-21T17:50:27.545Z,14.00
2023-03-21T17:52:57.401Z,13.90
2023-03-21T17:55:24.897Z,13.90
2023-03-21T17:57:52.140Z,14.00
2023-03-21T18:00:27.449Z,13.90
2023-03-21T18:02:54.771Z,13.80
2023-03-21T18:05:22.947Z,13.80
2023-03-21T18:08:09.639Z,13.80
2023-03-21T18:10:38.080Z,13.80
2023-03-21T18:13:05.470Z,13.70
2023-03-21T18:15:32.914Z,13.70
2023-03-21T18:17:59.988Z,13.60
2023-03-21T18:20:49.962Z,13.60
2023-03-21T18:23:15.988Z,13.60
2023-03-21T18:25:43.417Z,13.60
2023-03-21T18:28:12.496Z,13.50
2023-03-21T18:31:07.103Z,13.50
2023-03-21T18:33:28.654Z,13.40
2023-03-21T18:35:59.990Z,13.40
2023-03-21T18:38:28.534Z,13.30
2023-03-21T18:40:56.765Z,13.20
2023-03-21T18:44:01.014Z,13.20
2023-03-21T18:46:12.685Z,13.20
2023-03-21T18:48:39.839Z,13.10
2023-03-21T18:51:07.191Z,13.10
2023-03-21T18:53:34.380Z,13.10
2023-03-21T18:56:02.081Z,13.00
2023-03-21T18:58:29.467Z,12.90
2023-03-21T19:00:59.929Z,12.90
2023-03-21T19:03:36.726Z,12.80
2023-03-21T19:06:06.470Z,12.80
2023-03-21T19:08:36.954Z,12.70
2023-03-21T19:11:06.591Z,12.60
2023-03-21T19:13:34.484Z,12.50
2023-03-21T19:16:03.126Z,12.50
2023-03-21T19:18:53.119Z,12.50
2023-03-21T19:21:21.907Z,12.40
2023-03-21T19:24:22.900Z,12.30
2023-03-21T19:26:36.762Z,12.20
2023-03-21T19:29:03.965Z,12.30
2023-03-21T19:31:31.503Z,12.30
2023-03-21T19:33:59.019Z,12.20
2023-03-21T19:36:26.709Z,12.20
2023-03-21T19:38:53.991Z,12.20
2023-03-21T19:41:21.245Z,12.20
2023-03-21T19:43:54.564Z,12.20
2023-03-21T19:46:25.561Z,12.20
2023-03-21T19:48:56.587Z,12.20
2023-03-21T19:51:29.411Z,12.20
2023-03-21T19:54:04.594Z,12.30
2023-03-21T19:56:32.002Z,12.30
2023-03-21T19:59:02.554Z,12.30
2023-03-21T20:01:32.464Z,12.30
2023-03-21T20:04:00.628Z,12.40
2023-03-21T20:06:27.828Z,12.40
2023-03-21T20:09:42.928Z,12.40
2023-03-21T20:11:43.276Z,12.40
2023-03-21T20:14:10.578Z,12.40
2023-03-21T20:16:37.814Z,12.50
2023-03-21T20:19:08.868Z,12.50
2023-03-21T20:21:48.105Z,12.50
2023-03-21T20:24:17.753Z,12.50
2023-03-21T20:26:46.578Z,12.50
2023-03-21T20:30:07.609Z,12.60
2023-03-21T20:32:00.876Z,12.60
2023-03-21T20:34:28.571Z,12.60
2023-03-21T20:36:58.155Z,12.60
2023-03-21T20:39:28.035Z,12.60
2023-03-21T20:41:58.985Z,12.60
2023-03-21T20:44:57.347Z,12.60
2023-03-21T20:47:14.553Z,12.60
2023-03-21T20:49:41.801Z,12.60
2023-03-21T20:55:00.194Z,12.50
2023-03-21T20:57:27.783Z,12.40
2023-03-21T20:59:55.375Z,12.50
2023-03-21T21:02:23.680Z,12.50
2023-03-21T21:05:21.570Z,12.40
2023-03-21T21:07:41.608Z,12.50
2023-03-21T21:10:15.374Z,12.50
2023-03-21T21:12:45.282Z,12.50
2023-03-21T21:15:16.697Z,12.50
2023-03-21T21:20:33.798Z,12.50
2023-03-21T21:23:01.166Z,12.50
2023-03-21T21:25:32.124Z,12.60
2023-03-21T21:28:01.610Z,12.60
2023-03-21T21:30:29.554Z,12.60
2023-03-21T21:32:59.554Z,12.70
2023-03-21T21:35:27.105Z,12.70
2023-03-21T21:37:54.187Z,12.70
2023-03-21T21:40:23.450Z,12.80
2023-03-21T21:42:50.853Z,12.90
2023-03-21T21:45:18.994Z,13.00
2023-03-21T21:47:46.590Z,13.00
2023-03-21T21:50:14.331Z,13.10
2023-03-21T21:52:43.735Z,13.10
2023-03-21T21:55:13.169Z,13.00
2023-03-21T21:57:40.954Z,13.00
2023-03-21T22:00:13.725Z,13.00
2023-03-21T22:02:41.944Z,13.00
2023-03-21T22:05:09.627Z,12.90
2023-03-21T22:07:38.053Z,12.90
2023-03-21T22:10:06.669Z,12.80
2023-03-21T22:12:33.989Z,12.90
2023-03-21T22:15:01.145Z,12.80
2023-03-21T22:17:28.196Z,12.80
2023-03-21T22:20:05.178Z,12.80
2023-03-21T22:22:34.678Z,12.70
2023-03-21T22:25:03.069Z,12.70
2023-03-21T22:27:30.565Z,12.60
2023-03-21T22:29:57.563Z,12.50
2023-03-21T22:32:24.645Z,12.50
2023-03-21T22:34:51.640Z,12.40
2023-03-21T22:37:18.778Z,12.40
2023-03-21T22:39:45.864Z,12.30
2023-03-21T22:42:12.946Z,12.20
2023-03-21T22:44:40.279Z,12.20
2023-03-21T22:47:10.993Z,12.20
2023-03-21T22:49:39.201Z,12.30
2023-03-21T22:52:06.893Z,12.30
2023-03-21T22:54:34.075Z,12.30
2023-03-21T22:57:01.283Z,12.30
2023-03-21T22:59:28.775Z,12.10
2023-03-21T23:01:56.746Z,12.10
2023-03-21T23:04:26.657Z,12.10
2023-03-21T23:06:54.600Z,12.10
2023-03-21T23:09:21.666Z,11.90
2023-03-21T23:11:49.753Z,11.90
2023-03-21T23:14:21.619Z,11.90
2023-03-21T23:16:52.147Z,11.90
2023-03-21T23:19:21.519Z,11.90
2023-03-21T23:21:49.101Z,12.00
2023-03-21T23:24:16.191Z,12.00
2023-03-21T23:26:43.221Z,12.10
2023-03-21T23:29:11.058Z,12.00
2023-03-21T23:31:38.540Z,11.90
2023-03-21T23:34:06.192Z,11.90
2023-03-21T23:36:33.377Z,11.90
2023-03-21T23:39:00.684Z,11.90
2023-03-21T23:41:27.721Z,12.00
2023-03-21T23:43:54.864Z,12.00
2023-03-21T23:46:22.152Z,12.00
2023-03-21T23:48:49.374Z,12.00
2023-03-21T23:51:18.000Z,12.00
2023-03-21T23:53:46.364Z,12.00
2023-03-21T23:56:21.059Z,12.00
2023-03-21T23:58:52.602Z,12.10
